sensor_id;sensor_type;location;lat;lon;timestamp;P1;durP1;ratioP1;P2;durP2;ratioP2
41217;SDS011;26950;50.960;7.138;2023-04-30T00:02:02;37.17;;;24.53;;
41217;SDS011;26950;50.960;7.138;2023-04-30T00:04:30;40.13;;;25.03;;
41217;SDS011;26950;50.960;7.138;2023-04-30T00:06:56;39.83;;;24.37;;
41217;SDS011;26950;50.960;7.138;2023-04-30T00:09:23;38.17;;;23.57;;
41217;SDS011;26950;50.960;7.138;2023-04-30T00:11:49;39.27;;;23.27;;
41217;SDS011;26950;50.960;7.138;2023-04-30T00:14:16;40.63;;;23.40;;
41217;SDS011;26950;50.960;7.138;2023-04-30T00:16:42;41.07;;;23.07;;
41217;SDS011;26950;50.960;7.138;2023-04-30T00:19:09;40.57;;;24.83;;
41217;SDS011;26950;50.960;7.138;2023-04-30T00:21:37;37.73;;;23.67;;
41217;SDS011;26950;50.960;7.138;2023-04-30T00:24:04;38.97;;;23.43;;
41217;SDS011;26950;50.960;7.138;2023-04-30T00:26:30;41.67;;;25.43;;
41217;SDS011;26950;50.960;7.138;2023-04-30T00:28:57;37.47;;;23.97;;
41217;SDS011;26950;50.960;7.138;2023-04-30T00:31:23;38.63;;;24.80;;
41217;SDS011;26950;50.960;7.138;2023-04-30T00:33:50;37.00;;;23.50;;
41217;SDS011;26950;50.960;7.138;2023-04-30T00:36:16;39.83;;;24.40;;
41217;SDS011;26950;50.960;7.138;2023-04-30T00:38:44;36.63;;;23.20;;
41217;SDS011;26950;50.960;7.138;2023-04-30T00:41:11;36.10;;;22.70;;
41217;SDS011;26950;50.960;7.138;2023-04-30T00:43:38;41.53;;;22.83;;
41217;SDS011;26950;50.960;7.138;2023-04-30T00:46:04;44.37;;;23.50;;
41217;SDS011;26950;50.960;7.138;2023-04-30T00:48:31;36.33;;;22.00;;
41217;SDS011;26950;50.960;7.138;2023-04-30T00:50:57;34.10;;;21.93;;
41217;SDS011;26950;50.960;7.138;2023-04-30T00:53:24;33.90;;;21.10;;
41217;SDS011;26950;50.960;7.138;2023-04-30T00:55:53;33.73;;;21.27;;
41217;SDS011;26950;50.960;7.138;2023-04-30T00:58:20;35.00;;;21.30;;
41217;SDS011;26950;50.960;7.138;2023-04-30T01:00:47;34.73;;;20.67;;
41217;SDS011;26950;50.960;7.138;2023-04-30T01:03:14;31.27;;;20.07;;
41217;SDS011;26950;50.960;7.138;2023-04-30T01:05:41;34.03;;;20.30;;
41217;SDS011;26950;50.960;7.138;2023-04-30T01:08:08;32.57;;;19.27;;
41217;SDS011;26950;50.960;7.138;2023-04-30T01:10:38;26.53;;;16.77;;
41217;SDS011;26950;50.960;7.138;2023-04-30T01:13:11;28.40;;;17.20;;
41217;SDS011;26950;50.960;7.138;2023-04-30T01:15:53;29.73;;;18.00;;
41217;SDS011;26950;50.960;7.138;2023-04-30T01:18:27;28.63;;;16.90;;
41217;SDS011;26950;50.960;7.138;2023-04-30T01:20:57;27.00;;;17.90;;
41217;SDS011;26950;50.960;7.138;2023-04-30T01:23:31;27.33;;;17.10;;
41217;SDS011;26950;50.960;7.138;2023-04-30T01:26:10;29.97;;;17.17;;
41217;SDS011;26950;50.960;7.138;2023-04-30T01:28:41;30.60;;;17.63;;
41217;SDS011;26950;50.960;7.138;2023-04-30T01:31:12;26.83;;;16.80;;
41217;SDS011;26950;50.960;7.138;2023-04-30T01:33:40;26.60;;;16.70;;
41217;SDS011;26950;50.960;7.138;2023-04-30T01:36:09;23.20;;;15.30;;
41217;SDS011;26950;50.960;7.138;2023-04-30T01:39:05;27.70;;;17.13;;
41217;SDS011;26950;50.960;7.138;2023-04-30T01:41:47;25.07;;;16.50;;
41217;SDS011;26950;50.960;7.138;2023-04-30T01:44:28;24.20;;;16.03;;
41217;SDS011;26950;50.960;7.138;2023-04-30T01:47:06;27.67;;;15.33;;
41217;SDS011;26950;50.960;7.138;2023-04-30T01:49:41;24.27;;;15.23;;
41217;SDS011;26950;50.960;7.138;2023-04-30T01:52:21;23.57;;;14.50;;
41217;SDS011;26950;50.960;7.138;2023-04-30T01:54:58;22.27;;;14.37;;
41217;SDS011;26950;50.960;7.138;2023-04-30T01:57:29;24.67;;;14.90;;
41217;SDS011;26950;50.960;7.138;2023-04-30T01:59:59;22.73;;;14.97;;
41217;SDS011;26950;50.960;7.138;2023-04-30T02:02:26;22.80;;;14.73;;
41217;SDS011;26950;50.960;7.138;2023-04-30T02:04:52;23.23;;;13.80;;
41217;SDS011;26950;50.960;7.138;2023-04-30T02:07:20;23.53;;;14.20;;
41217;SDS011;26950;50.960;7.138;2023-04-30T02:10:02;22.53;;;14.00;;
41217;SDS011;26950;50.960;7.138;2023-04-30T02:12:28;22.60;;;13.60;;
41217;SDS011;26950;50.960;7.138;2023-04-30T02:14:55;27.80;;;14.27;;
41217;SDS011;26950;50.960;7.138;2023-04-30T02:17:23;25.23;;;13.53;;
41217;SDS011;26950;50.960;7.138;2023-04-30T02:19:49;20.37;;;12.70;;
41217;SDS011;26950;50.960;7.138;2023-04-30T02:22:16;22.53;;;14.33;;
41217;SDS011;26950;50.960;7.138;2023-04-30T02:24:42;19.83;;;13.20;;
41217;SDS011;26950;50.960;7.138;2023-04-30T02:27:09;19.57;;;13.07;;
41217;SDS011;26950;50.960;7.138;2023-04-30T02:29:35;21.23;;;13.27;;
41217;SDS011;26950;50.960;7.138;2023-04-30T02:32:02;21.07;;;12.87;;
41217;SDS011;26950;50.960;7.138;2023-04-30T02:34:30;20.03;;;12.40;;
41217;SDS011;26950;50.960;7.138;2023-04-30T02:36:56;23.83;;;13.30;;
41217;SDS011;26950;50.960;7.138;2023-04-30T02:39:23;19.50;;;12.83;;
41217;SDS011;26950;50.960;7.138;2023-04-30T02:41:49;20.63;;;13.43;;
41217;SDS011;26950;50.960;7.138;2023-04-30T02:44:16;20.20;;;13.17;;
41217;SDS011;26950;50.960;7.138;2023-04-30T02:46:42;19.73;;;12.83;;
41217;SDS011;26950;50.960;7.138;2023-04-30T02:49:09;21.67;;;12.73;;
41217;SDS011;26950;50.960;7.138;2023-04-30T02:51:37;19.07;;;12.40;;
41217;SDS011;26950;50.960;7.138;2023-04-30T02:54:03;20.17;;;12.40;;
41217;SDS011;26950;50.960;7.138;2023-04-30T02:56:30;18.80;;;12.43;;
41217;SDS011;26950;50.960;7.138;2023-04-30T02:58:56;21.93;;;13.23;;
41217;SDS011;26950;50.960;7.138;2023-04-30T03:01:23;20.97;;;12.77;;
41217;SDS011;26950;50.960;7.138;2023-04-30T03:03:49;23.53;;;12.43;;
41217;SDS011;26950;50.960;7.138;2023-04-30T03:06:16;22.03;;;13.40;;
41217;SDS011;26950;50.960;7.138;2023-04-30T03:08:43;21.23;;;12.57;;
41217;SDS011;26950;50.960;7.138;2023-04-30T03:11:10;23.33;;;12.33;;
41217;SDS011;26950;50.960;7.138;2023-04-30T03:13:36;19.27;;;12.47;;
41217;SDS011;26950;50.960;7.138;2023-04-30T03:16:03;20.80;;;12.40;;
41217;SDS011;26950;50.960;7.138;2023-04-30T03:18:30;18.90;;;11.57;;
41217;SDS011;26950;50.960;7.138;2023-04-30T03:20:56;25.03;;;13.50;;
41217;SDS011;26950;50.960;7.138;2023-04-30T03:23:25;22.00;;;12.60;;
41217;SDS011;26950;50.960;7.138;2023-04-30T03:25:54;22.20;;;12.90;;
41217;SDS011;26950;50.960;7.138;2023-04-30T03:28:20;22.00;;;13.30;;
41217;SDS011;26950;50.960;7.138;2023-04-30T03:30:47;19.37;;;12.60;;
41217;SDS011;26950;50.960;7.138;2023-04-30T03:33:13;21.23;;;12.60;;
41217;SDS011;26950;50.960;7.138;2023-04-30T03:35:40;22.93;;;13.13;;
41217;SDS011;26950;50.960;7.138;2023-04-30T03:38:07;17.40;;;11.70;;
41217;SDS011;26950;50.960;7.138;2023-04-30T03:40:33;19.87;;;12.47;;
41217;SDS011;26950;50.960;7.138;2023-04-30T03:43:01;25.23;;;13.07;;
41217;SDS011;26950;50.960;7.138;2023-04-30T03:45:28;23.37;;;13.13;;
41217;SDS011;26950;50.960;7.138;2023-04-30T03:47:55;21.97;;;13.00;;
41217;SDS011;26950;50.960;7.138;2023-04-30T03:50:21;22.93;;;14.37;;
41217;SDS011;26950;50.960;7.138;2023-04-30T03:52:49;25.67;;;13.83;;
41217;SDS011;26950;50.960;7.138;2023-04-30T03:55:15;23.40;;;13.63;;
41217;SDS011;26950;50.960;7.138;2023-04-30T03:57:42;22.13;;;13.97;;
41217;SDS011;26950;50.960;7.138;2023-04-30T04:00:11;20.17;;;13.70;;
41217;SDS011;26950;50.960;7.138;2023-04-30T04:02:38;20.47;;;13.37;;
41217;SDS011;26950;50.960;7.138;2023-04-30T04:05:06;22.50;;;13.30;;
41217;SDS011;26950;50.960;7.138;2023-04-30T04:07:33;21.67;;;13.27;;
41217;SDS011;26950;50.960;7.138;2023-04-30T04:09:59;21.20;;;13.97;;
41217;SDS011;26950;50.960;7.138;2023-04-30T04:12:27;20.67;;;13.20;;
41217;SDS011;26950;50.960;7.138;2023-04-30T04:14:53;19.67;;;12.93;;
41217;SDS011;26950;50.960;7.138;2023-04-30T04:17:21;19.03;;;12.67;;
41217;SDS011;26950;50.960;7.138;2023-04-30T04:19:48;19.00;;;12.20;;
41217;SDS011;26950;50.960;7.138;2023-04-30T04:22:14;20.10;;;12.17;;
41217;SDS011;26950;50.960;7.138;2023-04-30T04:24:41;21.97;;;13.00;;
41217;SDS011;26950;50.960;7.138;2023-04-30T04:27:07;20.70;;;12.97;;
41217;SDS011;26950;50.960;7.138;2023-04-30T04:29:34;24.17;;;13.17;;
41217;SDS011;26950;50.960;7.138;2023-04-30T04:32:00;21.63;;;13.37;;
41217;SDS011;26950;50.960;7.138;2023-04-30T04:34:31;20.73;;;13.13;;
41217;SDS011;26950;50.960;7.138;2023-04-30T04:36:58;21.07;;;12.63;;
41217;SDS011;26950;50.960;7.138;2023-04-30T04:39:25;20.13;;;13.03;;
41217;SDS011;26950;50.960;7.138;2023-04-30T04:41:52;19.70;;;12.70;;
41217;SDS011;26950;50.960;7.138;2023-04-30T04:44:18;21.97;;;13.47;;
41217;SDS011;26950;50.960;7.138;2023-04-30T04:46:45;19.40;;;12.87;;
41217;SDS011;26950;50.960;7.138;2023-04-30T04:49:11;19.87;;;12.83;;
41217;SDS011;26950;50.960;7.138;2023-04-30T04:51:39;20.30;;;12.30;;
41217;SDS011;26950;50.960;7.138;2023-04-30T04:54:05;21.10;;;13.03;;
41217;SDS011;26950;50.960;7.138;2023-04-30T04:56:32;22.77;;;12.57;;
41217;SDS011;26950;50.960;7.138;2023-04-30T04:58:59;20.83;;;12.43;;
41217;SDS011;26950;50.960;7.138;2023-04-30T05:01:26;18.73;;;12.30;;
41217;SDS011;26950;50.960;7.138;2023-04-30T05:03:53;20.73;;;12.77;;
41217;SDS011;26950;50.960;7.138;2023-04-30T05:06:20;20.80;;;12.43;;
41217;SDS011;26950;50.960;7.138;2023-04-30T05:08:47;19.87;;;12.80;;
41217;SDS011;26950;50.960;7.138;2023-04-30T05:11:14;22.07;;;13.67;;
41217;SDS011;26950;50.960;7.138;2023-04-30T05:13:40;18.97;;;12.47;;
41217;SDS011;26950;50.960;7.138;2023-04-30T05:16:07;21.43;;;12.93;;
41217;SDS011;26950;50.960;7.138;2023-04-30T05:18:33;18.77;;;12.30;;
41217;SDS011;26950;50.960;7.138;2023-04-30T05:21:00;21.80;;;12.63;;
41217;SDS011;26950;50.960;7.138;2023-04-30T05:23:28;18.97;;;12.00;;
41217;SDS011;26950;50.960;7.138;2023-04-30T05:25:56;18.83;;;11.93;;
41217;SDS011;26950;50.960;7.138;2023-04-30T05:28:22;22.33;;;12.27;;
41217;SDS011;26950;50.960;7.138;2023-04-30T05:30:49;19.47;;;12.70;;
41217;SDS011;26950;50.960;7.138;2023-04-30T05:33:15;21.87;;;12.47;;
41217;SDS011;26950;50.960;7.138;2023-04-30T05:35:42;19.17;;;12.43;;
41217;SDS011;26950;50.960;7.138;2023-04-30T05:38:08;19.43;;;12.23;;
41217;SDS011;26950;50.960;7.138;2023-04-30T05:40:35;20.40;;;12.80;;
41217;SDS011;26950;50.960;7.138;2023-04-30T05:43:03;20.07;;;12.77;;
41217;SDS011;26950;50.960;7.138;2023-04-30T05:45:29;19.50;;;12.47;;
41217;SDS011;26950;50.960;7.138;2023-04-30T05:47:56;20.47;;;12.73;;
41217;SDS011;26950;50.960;7.138;2023-04-30T05:50:22;21.30;;;12.90;;
41217;SDS011;26950;50.960;7.138;2023-04-30T05:52:49;21.57;;;12.90;;
41217;SDS011;26950;50.960;7.138;2023-04-30T05:55:15;21.80;;;13.53;;
41217;SDS011;26950;50.960;7.138;2023-04-30T05:57:42;21.73;;;12.73;;
41217;SDS011;26950;50.960;7.138;2023-04-30T06:00:10;21.57;;;13.03;;
41217;SDS011;26950;50.960;7.138;2023-04-30T06:02:38;18.83;;;12.83;;
41217;SDS011;26950;50.960;7.138;2023-04-30T06:05:05;21.10;;;12.90;;
41217;SDS011;26950;50.960;7.138;2023-04-30T06:07:32;20.67;;;13.13;;
41217;SDS011;26950;50.960;7.138;2023-04-30T06:09:59;20.27;;;12.37;;
41217;SDS011;26950;50.960;7.138;2023-04-30T06:12:26;20.50;;;13.00;;
41217;SDS011;26950;50.960;7.138;2023-04-30T06:14:52;22.43;;;12.73;;
41217;SDS011;26950;50.960;7.138;2023-04-30T06:17:20;19.23;;;12.47;;
41217;SDS011;26950;50.960;7.138;2023-04-30T06:19:47;21.13;;;13.00;;
41217;SDS011;26950;50.960;7.138;2023-04-30T06:22:13;21.53;;;13.80;;
41217;SDS011;26950;50.960;7.138;2023-04-30T06:24:40;21.27;;;12.73;;
41217;SDS011;26950;50.960;7.138;2023-04-30T06:27:06;17.53;;;12.07;;
41217;SDS011;26950;50.960;7.138;2023-04-30T06:29:33;19.73;;;12.13;;
41217;SDS011;26950;50.960;7.138;2023-04-30T06:31:59;21.03;;;12.20;;
41217;SDS011;26950;50.960;7.138;2023-04-30T06:34:27;19.50;;;12.43;;
41217;SDS011;26950;50.960;7.138;2023-04-30T06:36:53;22.10;;;12.77;;
41217;SDS011;26950;50.960;7.138;2023-04-30T06:39:20;19.73;;;11.77;;
41217;SDS011;26950;50.960;7.138;2023-04-30T06:41:47;17.97;;;11.50;;
41217;SDS011;26950;50.960;7.138;2023-04-30T06:44:13;18.63;;;11.67;;
41217;SDS011;26950;50.960;7.138;2023-04-30T06:46:41;20.07;;;11.47;;
41217;SDS011;26950;50.960;7.138;2023-04-30T06:49:07;17.23;;;10.63;;
41217;SDS011;26950;50.960;7.138;2023-04-30T06:51:35;20.97;;;11.90;;
41217;SDS011;26950;50.960;7.138;2023-04-30T06:54:02;18.33;;;11.13;;
41217;SDS011;26950;50.960;7.138;2023-04-30T06:56:28;19.20;;;11.40;;
41217;SDS011;26950;50.960;7.138;2023-04-30T06:58:55;15.63;;;10.37;;
41217;SDS011;26950;50.960;7.138;2023-04-30T07:01:21;20.30;;;12.10;;
41217;SDS011;26950;50.960;7.138;2023-04-30T07:03:48;22.53;;;11.10;;
41217;SDS011;26950;50.960;7.138;2023-04-30T07:06:15;15.50;;;10.93;;
41217;SDS011;26950;50.960;7.138;2023-04-30T07:08:43;18.33;;;10.23;;
41217;SDS011;26950;50.960;7.138;2023-04-30T07:11:09;18.77;;;11.70;;
41217;SDS011;26950;50.960;7.138;2023-04-30T07:13:36;16.33;;;10.00;;
41217;SDS011;26950;50.960;7.138;2023-04-30T07:16:03;16.00;;;9.80;;
41217;SDS011;26950;50.960;7.138;2023-04-30T07:18:30;15.80;;;9.57;;
41217;SDS011;26950;50.960;7.138;2023-04-30T07:20:57;13.60;;;8.80;;
41217;SDS011;26950;50.960;7.138;2023-04-30T07:23:23;13.23;;;8.77;;
41217;SDS011;26950;50.960;7.138;2023-04-30T07:25:51;15.50;;;9.87;;
41217;SDS011;26950;50.960;7.138;2023-04-30T07:28:18;18.23;;;9.53;;
41217;SDS011;26950;50.960;7.138;2023-04-30T07:30:44;16.60;;;9.00;;
41217;SDS011;26950;50.960;7.138;2023-04-30T07:33:11;17.43;;;8.93;;
41217;SDS011;26950;50.960;7.138;2023-04-30T07:35:37;13.67;;;8.33;;
41217;SDS011;26950;50.960;7.138;2023-04-30T07:38:04;14.10;;;7.87;;
41217;SDS011;26950;50.960;7.138;2023-04-30T07:40:31;12.10;;;6.83;;
41217;SDS011;26950;50.960;7.138;2023-04-30T07:42:58;10.17;;;6.80;;
41217;SDS011;26950;50.960;7.138;2023-04-30T07:45:25;11.70;;;6.37;;
41217;SDS011;26950;50.960;7.138;2023-04-30T07:47:52;8.80;;;6.20;;
41217;SDS011;26950;50.960;7.138;2023-04-30T07:50:18;7.73;;;5.80;;
41217;SDS011;26950;50.960;7.138;2023-04-30T07:52:47;10.50;;;5.60;;
41217;SDS011;26950;50.960;7.138;2023-04-30T07:55:13;7.40;;;5.10;;
41217;SDS011;26950;50.960;7.138;2023-04-30T07:57:40;7.80;;;5.00;;
41217;SDS011;26950;50.960;7.138;2023-04-30T08:00:08;8.30;;;5.50;;
41217;SDS011;26950;50.960;7.138;2023-04-30T08:02:35;9.23;;;5.37;;
41217;SDS011;26950;50.960;7.138;2023-04-30T08:05:02;10.45;;;5.55;;
41217;SDS011;26950;50.960;7.138;2023-04-30T08:07:29;9.70;;;4.88;;
41217;SDS011;26950;50.960;7.138;2023-04-30T08:09:56;7.13;;;4.43;;
41217;SDS011;26950;50.960;7.138;2023-04-30T08:12:22;7.47;;;4.77;;
41217;SDS011;26950;50.960;7.138;2023-04-30T08:14:49;8.47;;;5.33;;
41217;SDS011;26950;50.960;7.138;2023-04-30T08:17:17;7.27;;;4.27;;
41217;SDS011;26950;50.960;7.138;2023-04-30T08:19:43;6.32;;;4.10;;
41217;SDS011;26950;50.960;7.138;2023-04-30T08:22:10;6.30;;;3.60;;
41217;SDS011;26950;50.960;7.138;2023-04-30T08:24:36;7.53;;;3.92;;
41217;SDS011;26950;50.960;7.138;2023-04-30T08:27:03;5.90;;;4.13;;
41217;SDS011;26950;50.960;7.138;2023-04-30T08:29:30;6.10;;;3.50;;
41217;SDS011;26950;50.960;7.138;2023-04-30T08:31:56;3.28;;;2.67;;
41217;SDS011;26950;50.960;7.138;2023-04-30T08:34:29;6.78;;;3.00;;
41217;SDS011;26950;50.960;7.138;2023-04-30T08:36:55;4.43;;;2.85;;
41217;SDS011;26950;50.960;7.138;2023-04-30T08:39:22;6.20;;;2.85;;
41217;SDS011;26950;50.960;7.138;2023-04-30T08:41:50;3.42;;;1.92;;
41217;SDS011;26950;50.960;7.138;2023-04-30T08:44:21;2.83;;;2.22;;
41217;SDS011;26950;50.960;7.138;2023-04-30T08:46:48;3.58;;;2.10;;
41217;SDS011;26950;50.960;7.138;2023-04-30T08:49:18;5.75;;;3.40;;
41217;SDS011;26950;50.960;7.138;2023-04-30T08:51:46;9.88;;;3.10;;
41217;SDS011;26950;50.960;7.138;2023-04-30T08:54:14;3.83;;;2.97;;
41217;SDS011;26950;50.960;7.138;2023-04-30T08:56:43;3.67;;;2.30;;
41217;SDS011;26950;50.960;7.138;2023-04-30T08:59:10;4.85;;;2.20;;
41217;SDS011;26950;50.960;7.138;2023-04-30T09:01:37;2.50;;;1.70;;
41217;SDS011;26950;50.960;7.138;2023-04-30T09:04:04;2.75;;;1.85;;
41217;SDS011;26950;50.960;7.138;2023-04-30T09:06:30;2.30;;;1.77;;
41217;SDS011;26950;50.960;7.138;2023-04-30T09:08:58;2.90;;;1.52;;
41217;SDS011;26950;50.960;7.138;2023-04-30T09:11:34;1.40;;;1.30;;
41217;SDS011;26950;50.960;7.138;2023-04-30T09:14:01;2.63;;;1.60;;
41217;SDS011;26950;50.960;7.138;2023-04-30T09:16:28;1.88;;;1.40;;
41217;SDS011;26950;50.960;7.138;2023-04-30T09:19:09;2.50;;;1.30;;
41217;SDS011;26950;50.960;7.138;2023-04-30T09:21:36;3.10;;;1.50;;
41217;SDS011;26950;50.960;7.138;2023-04-30T09:24:04;2.33;;;1.60;;
41217;SDS011;26950;50.960;7.138;2023-04-30T09:26:33;3.38;;;1.70;;
41217;SDS011;26950;50.960;7.138;2023-04-30T09:29:02;2.17;;;1.40;;
41217;SDS011;26950;50.960;7.138;2023-04-30T09:31:32;1.80;;;1.10;;
41217;SDS011;26950;50.960;7.138;2023-04-30T09:33:59;1.35;;;1.10;;
41217;SDS011;26950;50.960;7.138;2023-04-30T09:36:25;3.60;;;1.80;;
41217;SDS011;26950;50.960;7.138;2023-04-30T09:38:52;2.63;;;1.40;;
41217;SDS011;26950;50.960;7.138;2023-04-30T09:41:24;1.58;;;1.15;;
41217;SDS011;26950;50.960;7.138;2023-04-30T09:43:52;1.90;;;1.20;;
41217;SDS011;26950;50.960;7.138;2023-04-30T09:46:19;1.30;;;1.20;;
41217;SDS011;26950;50.960;7.138;2023-04-30T09:48:46;1.67;;;1.38;;
41217;SDS011;26950;50.960;7.138;2023-04-30T09:51:20;2.00;;;1.30;;
41217;SDS011;26950;50.960;7.138;2023-04-30T09:53:47;2.75;;;1.60;;
41217;SDS011;26950;50.960;7.138;2023-04-30T09:56:17;2.22;;;1.25;;
41217;SDS011;26950;50.960;7.138;2023-04-30T09:58:49;1.67;;;1.20;;
41217;SDS011;26950;50.960;7.138;2023-04-30T10:01:17;4.28;;;1.30;;
41217;SDS011;26950;50.960;7.138;2023-04-30T10:03:44;1.90;;;1.38;;
41217;SDS011;26950;50.960;7.138;2023-04-30T10:06:12;2.95;;;1.60;;
41217;SDS011;26950;50.960;7.138;2023-04-30T10:08:41;1.65;;;1.27;;
41217;SDS011;26950;50.960;7.138;2023-04-30T10:11:09;2.60;;;1.45;;
41217;SDS011;26950;50.960;7.138;2023-04-30T10:13:42;2.67;;;1.20;;
41217;SDS011;26950;50.960;7.138;2023-04-30T10:16:14;1.38;;;1.10;;
41217;SDS011;26950;50.960;7.138;2023-04-30T10:18:49;1.52;;;1.13;;
41217;SDS011;26950;50.960;7.138;2023-04-30T10:21:18;1.30;;;1.20;;
41217;SDS011;26950;50.960;7.138;2023-04-30T10:23:47;1.40;;;1.20;;
41217;SDS011;26950;50.960;7.138;2023-04-30T10:26:14;1.90;;;1.27;;
41217;SDS011;26950;50.960;7.138;2023-04-30T10:28:41;2.00;;;1.73;;
41217;SDS011;26950;50.960;7.138;2023-04-30T10:31:08;1.42;;;1.17;;
41217;SDS011;26950;50.960;7.138;2023-04-30T10:33:40;1.38;;;1.00;;
41217;SDS011;26950;50.960;7.138;2023-04-30T10:36:13;0.82;;;0.82;;
41217;SDS011;26950;50.960;7.138;2023-04-30T10:38:47;2.05;;;0.90;;
41217;SDS011;26950;50.960;7.138;2023-04-30T10:41:14;0.80;;;0.80;;
41217;SDS011;26950;50.960;7.138;2023-04-30T10:43:45;1.73;;;0.90;;
41217;SDS011;26950;50.960;7.138;2023-04-30T10:46:15;1.77;;;0.70;;
41217;SDS011;26950;50.960;7.138;2023-04-30T10:48:48;2.15;;;1.00;;
41217;SDS011;26950;50.960;7.138;2023-04-30T10:51:15;0.90;;;0.70;;
41217;SDS011;26950;50.960;7.138;2023-04-30T10:53:42;1.88;;;1.10;;
41217;SDS011;26950;50.960;7.138;2023-04-30T10:56:09;1.10;;;0.65;;
41217;SDS011;26950;50.960;7.138;2023-04-30T10:58:36;1.88;;;0.70;;
41217;SDS011;26950;50.960;7.138;2023-04-30T11:01:05;1.83;;;0.80;;
41217;SDS011;26950;50.960;7.138;2023-04-30T11:03:35;0.95;;;0.80;;
41217;SDS011;26950;50.960;7.138;2023-04-30T11:06:11;1.63;;;0.80;;
41217;SDS011;26950;50.960;7.138;2023-04-30T11:08:39;0.70;;;0.70;;
41217;SDS011;26950;50.960;7.138;2023-04-30T11:11:08;1.30;;;0.60;;
41217;SDS011;26950;50.960;7.138;2023-04-30T11:13:38;1.05;;;0.60;;
41217;SDS011;26950;50.960;7.138;2023-04-30T11:16:06;0.63;;;0.63;;
41217;SDS011;26950;50.960;7.138;2023-04-30T11:18:32;0.93;;;0.57;;
41217;SDS011;26950;50.960;7.138;2023-04-30T11:21:00;0.65;;;0.65;;
41217;SDS011;26950;50.960;7.138;2023-04-30T11:23:28;0.70;;;0.70;;
41217;SDS011;26950;50.960;7.138;2023-04-30T11:25:59;2.85;;;0.70;;
41217;SDS011;26950;50.960;7.138;2023-04-30T11:28:26;1.35;;;0.70;;
41217;SDS011;26950;50.960;7.138;2023-04-30T11:30:55;1.35;;;0.70;;
41217;SDS011;26950;50.960;7.138;2023-04-30T11:33:23;1.10;;;0.60;;
41217;SDS011;26950;50.960;7.138;2023-04-30T11:35:51;1.60;;;0.70;;
41217;SDS011;26950;50.960;7.138;2023-04-30T11:38:20;0.90;;;0.60;;
41217;SDS011;26950;50.960;7.138;2023-04-30T11:40:49;2.15;;;0.80;;
41217;SDS011;26950;50.960;7.138;2023-04-30T11:43:19;0.55;;;0.50;;
41217;SDS011;26950;50.960;7.138;2023-04-30T11:45:57;0.93;;;0.60;;
41217;SDS011;26950;50.960;7.138;2023-04-30T11:48:29;0.50;;;0.50;;
41217;SDS011;26950;50.960;7.138;2023-04-30T11:50:56;0.77;;;0.60;;
41217;SDS011;26950;50.960;7.138;2023-04-30T11:53:25;1.13;;;0.60;;
41217;SDS011;26950;50.960;7.138;2023-04-30T11:55:53;1.75;;;0.80;;
41217;SDS011;26950;50.960;7.138;2023-04-30T11:58:20;2.50;;;0.80;;
41217;SDS011;26950;50.960;7.138;2023-04-30T12:00:47;0.90;;;0.80;;
41217;SDS011;26950;50.960;7.138;2023-04-30T12:03:16;0.50;;;0.50;;
41217;SDS011;26950;50.960;7.138;2023-04-30T12:05:42;0.70;;;0.52;;
41217;SDS011;26950;50.960;7.138;2023-04-30T12:08:11;0.45;;;0.43;;
41217;SDS011;26950;50.960;7.138;2023-04-30T12:10:37;0.93;;;0.52;;
41217;SDS011;26950;50.960;7.138;2023-04-30T12:13:05;1.88;;;0.60;;
41217;SDS011;26950;50.960;7.138;2023-04-30T12:15:31;0.98;;;0.55;;
41217;SDS011;26950;50.960;7.138;2023-04-30T12:17:58;0.65;;;0.65;;
41217;SDS011;26950;50.960;7.138;2023-04-30T12:20:25;0.60;;;0.50;;
41217;SDS011;26950;50.960;7.138;2023-04-30T12:22:54;0.70;;;0.60;;
41217;SDS011;26950;50.960;7.138;2023-04-30T12:25:23;0.70;;;0.70;;
41217;SDS011;26950;50.960;7.138;2023-04-30T12:27:50;1.67;;;0.60;;
41217;SDS011;26950;50.960;7.138;2023-04-30T12:30:19;0.50;;;0.50;;
41217;SDS011;26950;50.960;7.138;2023-04-30T12:32:48;0.52;;;0.52;;
41217;SDS011;26950;50.960;7.138;2023-04-30T12:35:16;0.88;;;0.50;;
41217;SDS011;26950;50.960;7.138;2023-04-30T12:37:45;2.30;;;0.70;;
41217;SDS011;26950;50.960;7.138;2023-04-30T12:40:14;1.08;;;0.60;;
41217;SDS011;26950;50.960;7.138;2023-04-30T12:42:41;0.50;;;0.50;;
41217;SDS011;26950;50.960;7.138;2023-04-30T12:45:09;1.27;;;0.70;;
41217;SDS011;26950;50.960;7.138;2023-04-30T12:47:38;3.40;;;0.90;;
41217;SDS011;26950;50.960;7.138;2023-04-30T12:50:07;1.88;;;0.80;;
41217;SDS011;26950;50.960;7.138;2023-04-30T12:52:35;0.68;;;0.60;;
41217;SDS011;26950;50.960;7.138;2023-04-30T12:55:15;0.70;;;0.70;;
41217;SDS011;26950;50.960;7.138;2023-04-30T13:00:44;3.65;;;0.73;;
41217;SDS011;26950;50.960;7.138;2023-04-30T13:03:14;3.47;;;1.27;;
41217;SDS011;26950;50.960;7.138;2023-04-30T13:05:42;4.65;;;2.45;;
41217;SDS011;26950;50.960;7.138;2023-04-30T13:08:12;2.92;;;1.23;;
41217;SDS011;26950;50.960;7.138;2023-04-30T13:10:39;11.52;;;2.60;;
41217;SDS011;26950;50.960;7.138;2023-04-30T13:13:05;19.13;;;4.57;;
41217;SDS011;26950;50.960;7.138;2023-04-30T13:15:32;4.35;;;1.30;;
41217;SDS011;26950;50.960;7.138;2023-04-30T13:17:59;4.45;;;1.48;;
41217;SDS011;26950;50.960;7.138;2023-04-30T13:20:26;2.80;;;1.02;;
41217;SDS011;26950;50.960;7.138;2023-04-30T13:22:53;6.72;;;2.05;;
41217;SDS011;26950;50.960;7.138;2023-04-30T13:25:20;9.85;;;2.38;;
41217;SDS011;26950;50.960;7.138;2023-04-30T13:27:47;3.05;;;1.27;;
41217;SDS011;26950;50.960;7.138;2023-04-30T13:30:13;1.00;;;0.70;;
41217;SDS011;26950;50.960;7.138;2023-04-30T13:32:40;3.78;;;1.50;;
41217;SDS011;26950;50.960;7.138;2023-04-30T13:35:07;1.10;;;0.50;;
41217;SDS011;26950;50.960;7.138;2023-04-30T13:37:36;1.58;;;0.70;;
41217;SDS011;26950;50.960;7.138;2023-04-30T13:40:04;2.28;;;1.00;;
41217;SDS011;26950;50.960;7.138;2023-04-30T13:42:32;0.50;;;0.50;;
41217;SDS011;26950;50.960;7.138;2023-04-30T13:44:58;1.35;;;0.68;;
41217;SDS011;26950;50.960;7.138;2023-04-30T13:47:25;2.55;;;0.80;;
41217;SDS011;26950;50.960;7.138;2023-04-30T13:49:51;2.50;;;0.63;;
41217;SDS011;26950;50.960;7.138;2023-04-30T13:52:18;1.20;;;0.90;;
41217;SDS011;26950;50.960;7.138;2023-04-30T13:54:45;2.10;;;0.80;;
41217;SDS011;26950;50.960;7.138;2023-04-30T13:57:12;1.80;;;0.88;;
41217;SDS011;26950;50.960;7.138;2023-04-30T13:59:39;1.17;;;0.77;;
41217;SDS011;26950;50.960;7.138;2023-04-30T14:02:05;0.77;;;0.68;;
41217;SDS011;26950;50.960;7.138;2023-04-30T14:04:33;1.50;;;0.75;;
41217;SDS011;26950;50.960;7.138;2023-04-30T14:06:59;0.85;;;0.60;;
41217;SDS011;26950;50.960;7.138;2023-04-30T14:09:26;0.52;;;0.52;;
41217;SDS011;26950;50.960;7.138;2023-04-30T14:11:54;0.60;;;0.60;;
41217;SDS011;26950;50.960;7.138;2023-04-30T14:14:22;1.23;;;0.77;;
41217;SDS011;26950;50.960;7.138;2023-04-30T14:16:48;1.00;;;0.70;;
41217;SDS011;26950;50.960;7.138;2023-04-30T14:19:15;0.52;;;0.50;;
41217;SDS011;26950;50.960;7.138;2023-04-30T14:21:41;1.08;;;0.60;;
41217;SDS011;26950;50.960;7.138;2023-04-30T14:24:08;0.50;;;0.50;;
41217;SDS011;26950;50.960;7.138;2023-04-30T14:26:36;0.60;;;0.60;;
41217;SDS011;26950;50.960;7.138;2023-04-30T14:29:04;3.42;;;0.95;;
41217;SDS011;26950;50.960;7.138;2023-04-30T14:31:31;0.40;;;0.40;;
41217;SDS011;26950;50.960;7.138;2023-04-30T14:33:57;0.57;;;0.50;;
41217;SDS011;26950;50.960;7.138;2023-04-30T14:36:24;0.50;;;0.50;;
41217;SDS011;26950;50.960;7.138;2023-04-30T14:38:51;2.10;;;0.77;;
41217;SDS011;26950;50.960;7.138;2023-04-30T14:41:18;0.63;;;0.45;;